createdAt,value
2018-06-16T00:00:06.238Z,11.90
2018-06-16T00:02:36.463Z,9.50
2018-06-16T00:05:06.604Z,11.63
2018-06-16T00:07:36.234Z,9.60
2018-06-16T00:10:06.091Z,12.73
2018-06-16T00:12:35.767Z,14.57
2018-06-16T00:15:05.568Z,10.77
2018-06-16T00:17:35.464Z,10.03
2018-06-16T00:20:05.305Z,9.57
2018-06-16T00:22:35.512Z,11.37
2018-06-16T00:25:05.207Z,16.93
2018-06-16T00:27:34.786Z,11.10
2018-06-16T00:30:04.835Z,9.13
2018-06-16T00:32:34.752Z,12.77
2018-06-16T00:35:05.054Z,11.07
2018-06-16T00:37:34.828Z,13.63
2018-06-16T00:40:05.093Z,13.13
2018-06-16T00:42:34.628Z,9.10
2018-06-16T00:45:04.536Z,14.83
2018-06-16T00:47:34.287Z,8.87
2018-06-16T00:50:04.254Z,10.43
2018-06-16T00:52:34.038Z,11.57
2018-06-16T00:55:03.895Z,10.57
2018-06-16T00:57:41.715Z,11.07
2018-06-16T01:00:11.271Z,9.40
2018-06-16T01:02:41.348Z,8.77
2018-06-16T01:05:11.229Z,11.87
2018-06-16T01:07:41.178Z,10.10
2018-06-16T01:10:11.968Z,13.13
2018-06-16T01:12:42.118Z,10.43
2018-06-16T01:15:12.276Z,10.80
2018-06-16T01:17:41.962Z,8.27
2018-06-16T01:20:11.791Z,9.27
2018-06-16T01:22:41.516Z,10.80
2018-06-16T01:25:11.110Z,10.23
2018-06-16T01:27:41.142Z,11.30
2018-06-16T01:30:10.653Z,9.83
2018-06-16T01:32:40.813Z,13.20
2018-06-16T01:35:10.527Z,8.43
2018-06-16T01:37:40.571Z,9.90
2018-06-16T01:40:10.424Z,8.17
2018-06-16T01:42:40.287Z,9.17
2018-06-16T01:45:10.106Z,11.30
2018-06-16T01:47:40.227Z,12.53
2018-06-16T01:50:09.836Z,9.83
2018-06-16T01:52:39.690Z,11.23
2018-06-16T01:55:09.235Z,7.27
2018-06-16T01:57:38.775Z,8.80
2018-06-16T02:00:08.722Z,11.00
2018-06-16T02:02:38.383Z,11.73
2018-06-16T02:05:08.157Z,10.47
2018-06-16T02:07:37.966Z,10.70
2018-06-16T02:10:07.839Z,12.23
2018-06-16T02:12:37.735Z,11.70
2018-06-16T02:15:07.799Z,11.73
2018-06-16T02:17:37.686Z,9.43
2018-06-16T02:20:07.609Z,11.07
2018-06-16T02:22:37.575Z,12.80
2018-06-16T02:25:07.131Z,12.27
2018-06-16T02:27:36.763Z,17.17
2018-06-16T02:30:06.455Z,10.87
2018-06-16T02:32:36.443Z,10.20
2018-06-16T02:35:06.423Z,11.60
2018-06-16T02:37:36.195Z,18.17
2018-06-16T02:40:05.794Z,29.30
2018-06-16T02:42:35.577Z,24.57
2018-06-16T02:45:05.811Z,21.00
2018-06-16T02:47:35.452Z,21.27
2018-06-16T02:50:05.317Z,19.93
2018-06-16T02:52:35.147Z,17.63
2018-06-16T02:55:04.824Z,13.80
2018-06-16T02:57:34.292Z,11.97
2018-06-16T03:00:04.211Z,16.20
2018-06-16T03:02:33.837Z,9.70
2018-06-16T03:05:03.634Z,11.23
2018-06-16T03:07:33.404Z,9.60
2018-06-16T03:10:03.296Z,9.30
2018-06-16T03:12:33.019Z,10.20
2018-06-16T03:15:03.011Z,9.27
2018-06-16T03:17:32.747Z,9.60
2018-06-16T03:20:02.411Z,12.47
2018-06-16T03:22:31.934Z,13.07
2018-06-16T03:25:01.447Z,11.77
2018-06-16T03:27:31.144Z,10.23
2018-06-16T03:30:01.163Z,12.30
2018-06-16T03:32:30.849Z,11.30
2018-06-16T03:35:00.959Z,9.43
2018-06-16T03:37:31.123Z,9.67
2018-06-16T03:40:01.024Z,8.47
2018-06-16T03:42:30.983Z,10.80
2018-06-16T03:45:00.789Z,11.20
2018-06-16T03:47:30.738Z,11.23
2018-06-16T03:50:00.619Z,9.03
2018-06-16T03:52:30.299Z,11.20
2018-06-16T03:55:00.152Z,7.73
2018-06-16T03:57:29.887Z,8.00
2018-06-16T03:59:59.487Z,9.50
2018-06-16T04:02:29.427Z,10.37
2018-06-16T04:04:59.167Z,9.10
2018-06-16T04:07:28.998Z,12.87
2018-06-16T04:09:58.817Z,8.57
2018-06-16T04:12:28.474Z,10.90
2018-06-16T04:14:58.373Z,10.53
2018-06-16T04:17:28.340Z,17.20
2018-06-16T04:19:58.132Z,21.73
2018-06-16T04:22:27.645Z,27.30
2018-06-16T04:24:57.298Z,31.47
2018-06-16T04:27:27.360Z,29.97
2018-06-16T04:29:57.384Z,25.90
2018-06-16T04:32:27.208Z,19.97
2018-06-16T04:34:57.000Z,16.53
2018-06-16T04:37:26.734Z,15.53
2018-06-16T04:39:56.645Z,11.27
2018-06-16T04:42:26.452Z,12.23
2018-06-16T04:44:56.365Z,11.20
2018-06-16T04:47:26.064Z,10.77
2018-06-16T04:49:55.588Z,38.17
2018-06-16T04:52:25.547Z,10.87
2018-06-16T04:54:55.263Z,8.93
2018-06-16T04:57:25.199Z,13.80
2018-06-16T04:59:55.190Z,11.40
2018-06-16T05:02:25.261Z,12.03
2018-06-16T05:04:55.125Z,9.53
2018-06-16T05:07:24.992Z,10.57
2018-06-16T05:09:55.125Z,13.00
2018-06-16T05:12:25.107Z,13.57
2018-06-16T05:14:54.918Z,14.00
2018-06-16T05:17:24.755Z,14.63
2018-06-16T05:19:54.672Z,15.77
2018-06-16T05:22:24.316Z,13.60
2018-06-16T05:24:53.943Z,14.30
2018-06-16T05:27:23.738Z,16.20
2018-06-16T05:29:53.728Z,13.67
2018-06-16T05:32:23.630Z,11.90
2018-06-16T05:34:53.677Z,14.83
2018-06-16T05:37:23.554Z,11.90
2018-06-16T05:39:53.696Z,15.63
2018-06-16T05:42:23.668Z,13.43
2018-06-16T05:44:53.320Z,14.10
2018-06-16T05:47:23.048Z,12.03
2018-06-16T05:49:52.745Z,14.90
2018-06-16T05:52:22.289Z,16.37
2018-06-16T05:54:52.156Z,18.57
2018-06-16T05:57:22.164Z,17.00
2018-06-16T05:59:52.054Z,13.43
2018-06-16T06:02:22.343Z,14.63
2018-06-16T06:04:52.229Z,14.50
2018-06-16T06:07:21.964Z,13.50
2018-06-16T06:09:51.948Z,16.73
2018-06-16T06:12:22.339Z,16.37
2018-06-16T06:14:52.134Z,14.17
2018-06-16T06:17:22.202Z,12.93
2018-06-16T06:19:51.922Z,22.37
2018-06-16T06:22:21.507Z,20.47
2018-06-16T06:24:51.142Z,18.97
2018-06-16T06:27:21.120Z,21.53
2018-06-16T06:29:50.928Z,15.50
2018-06-16T06:32:20.710Z,16.00
2018-06-16T06:34:50.506Z,18.07
2018-06-16T06:37:20.412Z,21.43
2018-06-16T06:39:50.432Z,14.57
2018-06-16T06:42:20.444Z,16.73
2018-06-16T06:44:50.053Z,16.63
2018-06-16T06:47:19.792Z,17.77
2018-06-16T06:49:49.422Z,14.67
2018-06-16T06:52:19.367Z,17.07
2018-06-16T06:54:49.484Z,15.60
2018-06-16T06:57:19.134Z,22.23
2018-06-16T06:59:49.298Z,20.87
2018-06-16T07:02:19.068Z,15.43
2018-06-16T07:04:49.217Z,18.73
2018-06-16T07:07:19.000Z,16.90
2018-06-16T07:09:49.047Z,16.87
2018-06-16T07:12:18.763Z,23.97
2018-06-16T07:14:48.676Z,19.27
2018-06-16T07:17:18.546Z,17.80
2018-06-16T07:19:48.049Z,17.07
2018-06-16T07:22:17.642Z,18.73
2018-06-16T07:24:47.583Z,23.83
2018-06-16T07:27:17.491Z,28.00
2018-06-16T07:29:47.719Z,18.10
2018-06-16T07:32:17.403Z,24.83
2018-06-16T07:34:47.241Z,13.43
2018-06-16T07:37:17.436Z,29.30
2018-06-16T07:39:47.155Z,16.50
2018-06-16T07:42:16.840Z,36.00
2018-06-16T07:44:46.813Z,23.53
2018-06-16T07:47:16.423Z,26.47
2018-06-16T07:49:45.912Z,29.20
2018-06-16T07:52:15.509Z,31.80
2018-06-16T07:54:47.162Z,33.30
2018-06-16T07:57:17.405Z,24.83
2018-06-16T07:59:47.466Z,30.70
2018-06-16T08:02:17.410Z,21.97
2018-06-16T08:04:47.502Z,24.13
2018-06-16T08:07:17.376Z,28.87
2018-06-16T08:09:46.966Z,23.30
2018-06-16T08:12:17.351Z,26.43
2018-06-16T08:14:47.111Z,23.43
2018-06-16T08:17:16.822Z,24.47
2018-06-16T08:19:46.385Z,20.67
2018-06-16T08:22:15.934Z,20.40
2018-06-16T08:24:46.297Z,18.83
2018-06-16T08:27:16.099Z,21.63
2018-06-16T08:29:46.178Z,20.37
2018-06-16T08:32:16.050Z,24.47
2018-06-16T08:34:45.879Z,17.33
2018-06-16T08:37:15.450Z,18.87
2018-06-16T08:39:45.553Z,23.03
2018-06-16T08:42:15.300Z,18.40
2018-06-16T08:44:45.107Z,20.67
2018-06-16T08:47:14.788Z,18.33
2018-06-16T08:49:44.268Z,17.50
2018-06-16T08:52:14.012Z,19.67
2018-06-16T08:54:43.928Z,18.97
2018-06-16T08:57:13.740Z,17.90
2018-06-16T08:59:43.663Z,21.80
2018-06-16T09:02:13.562Z,17.73
2018-06-16T09:04:43.315Z,18.63
2018-06-16T09:07:13.331Z,17.63
2018-06-16T09:09:42.999Z,20.10
2018-06-16T09:12:12.931Z,24.50
2018-06-16T09:14:42.710Z,18.73
2018-06-16T09:17:12.184Z,15.35
2018-06-16T09:19:41.879Z,14.78
2018-06-16T09:22:11.530Z,17.55
2018-06-16T09:24:41.166Z,17.23
2018-06-16T09:27:11.094Z,16.75
2018-06-16T09:29:41.099Z,18.62
2018-06-16T09:32:11.154Z,17.70
2018-06-16T09:34:41.352Z,14.78
2018-06-16T09:37:11.032Z,13.60
2018-06-16T09:39:41.806Z,15.48
2018-06-16T09:42:12.049Z,17.35
2018-06-16T09:44:41.654Z,16.20
2018-06-16T09:47:11.268Z,17.90
2018-06-16T09:49:41.200Z,16.20
2018-06-16T09:52:10.831Z,23.13
2018-06-16T09:54:40.695Z,17.17
2018-06-16T09:57:10.821Z,19.50
2018-06-16T09:59:40.436Z,16.97
2018-06-16T10:02:10.216Z,20.27
2018-06-16T10:04:40.038Z,22.03
2018-06-16T10:07:09.974Z,20.47
2018-06-16T10:09:39.846Z,20.63
2018-06-16T10:12:09.851Z,21.00
2018-06-16T10:14:39.349Z,20.73
2018-06-16T10:17:09.333Z,23.17
2018-06-16T10:19:38.869Z,16.80
2018-06-16T10:22:08.827Z,18.30
2018-06-16T10:24:38.874Z,14.40
2018-06-16T10:27:08.400Z,17.30
2018-06-16T10:29:38.587Z,13.63
2018-06-16T10:32:08.589Z,19.57
2018-06-16T10:34:38.376Z,13.20
2018-06-16T10:37:08.144Z,10.93
2018-06-16T10:39:37.931Z,17.37
2018-06-16T10:42:07.831Z,8.40
2018-06-16T10:44:37.394Z,9.90
2018-06-16T10:47:07.161Z,7.65
2018-06-16T10:49:36.779Z,11.00
2018-06-16T10:52:06.609Z,17.37
2018-06-16T10:54:36.270Z,9.93
2018-06-16T10:57:06.311Z,6.67
2018-06-16T10:59:36.223Z,15.18
2018-06-16T11:02:04.866Z,9.88
2018-06-16T11:04:34.558Z,9.73
2018-06-16T11:07:04.441Z,10.32
2018-06-16T11:09:34.127Z,14.00
2018-06-16T11:12:03.970Z,11.27
2018-06-16T11:14:33.568Z,13.30
2018-06-16T11:17:03.148Z,17.10
2018-06-16T11:19:32.751Z,16.83
2018-06-16T11:22:02.706Z,13.67
2018-06-16T11:24:32.658Z,12.20
2018-06-16T11:27:02.422Z,12.23
2018-06-16T11:29:32.208Z,12.53
2018-06-16T11:32:02.269Z,12.90
2018-06-16T11:34:31.980Z,21.10
2018-06-16T11:37:01.689Z,21.83
2018-06-16T11:39:31.757Z,28.60
2018-06-16T11:42:01.497Z,40.57
2018-06-16T11:44:31.054Z,49.10
2018-06-16T11:47:00.620Z,35.93
2018-06-16T11:49:30.338Z,31.77
2018-06-16T11:52:00.271Z,29.30
2018-06-16T11:54:30.159Z,39.00
2018-06-16T11:57:00.027Z,37.67
2018-06-16T11:59:29.666Z,37.43
2018-06-16T12:01:59.586Z,30.13
2018-06-16T12:04:29.368Z,24.90
2018-06-16T12:06:58.933Z,25.13
2018-06-16T12:09:28.711Z,39.23
2018-06-16T12:11:58.690Z,22.20
2018-06-16T12:14:28.267Z,26.17
2018-06-16T12:16:58.174Z,26.80
2018-06-16T12:19:27.898Z,32.30
2018-06-16T12:21:57.810Z,37.23
2018-06-16T12:24:27.449Z,34.70
2018-06-16T12:26:57.111Z,36.33
2018-06-16T12:29:26.907Z,28.03
2018-06-16T12:31:56.702Z,25.57
2018-06-16T12:34:26.603Z,37.70
2018-06-16T12:36:56.422Z,29.83
2018-06-16T12:39:26.199Z,39.53
2018-06-16T12:41:55.872Z,33.17
2018-06-16T12:44:25.666Z,32.07
2018-06-16T12:46:55.319Z,31.87
2018-06-16T12:49:25.146Z,40.27
2018-06-16T12:51:54.879Z,36.10
2018-06-16T12:54:24.627Z,35.97
2018-06-16T12:56:54.197Z,36.90
2018-06-16T12:59:23.868Z,43.53
2018-06-16T13:01:53.788Z,42.90
2018-06-16T13:04:23.522Z,35.20
2018-06-16T13:06:53.225Z,33.20
2018-06-16T13:09:23.184Z,35.20
2018-06-16T13:11:52.843Z,24.53
2018-06-16T13:14:22.535Z,19.20
2018-06-16T13:16:52.065Z,20.07
2018-06-16T13:19:21.967Z,17.57
2018-06-16T13:21:51.710Z,16.47
2018-06-16T13:24:21.684Z,15.93
2018-06-16T13:26:51.562Z,18.03
2018-06-16T13:29:21.274Z,14.17
2018-06-16T13:31:50.915Z,11.37
2018-06-16T13:34:20.706Z,15.50
2018-06-16T13:36:50.471Z,13.17
2018-06-16T13:39:20.150Z,9.03
2018-06-16T13:41:49.656Z,8.00
2018-06-16T13:44:19.146Z,9.33
2018-06-16T13:46:49.004Z,9.37
2018-06-16T13:49:18.745Z,8.97
2018-06-16T13:51:48.615Z,9.33
2018-06-16T13:54:18.234Z,9.93
2018-06-16T13:56:48.161Z,9.23
2018-06-16T13:59:17.758Z,8.90
2018-06-16T14:01:47.255Z,9.20
2018-06-16T14:04:17.129Z,10.57
2018-06-16T14:06:46.771Z,10.73
2018-06-16T14:09:16.606Z,11.87
2018-06-16T14:11:46.155Z,12.17
2018-06-16T14:14:15.691Z,9.60
2018-06-16T14:16:45.432Z,8.03
2018-06-16T14:19:15.242Z,8.03
2018-06-16T14:21:44.867Z,12.10
2018-06-16T14:24:14.867Z,8.03
2018-06-16T14:26:44.587Z,8.43
2018-06-16T14:29:14.766Z,8.53
2018-06-16T14:31:44.945Z,8.90
2018-06-16T14:34:14.743Z,9.13
2018-06-16T14:36:44.593Z,10.33
2018-06-16T14:39:14.326Z,7.07
2018-06-16T14:41:43.908Z,11.93
2018-06-16T14:44:13.926Z,15.00
2018-06-16T14:46:43.787Z,11.83
2018-06-16T14:49:13.952Z,10.10
2018-06-16T14:51:43.627Z,15.87
2018-06-16T14:54:13.479Z,14.80
2018-06-16T14:56:43.271Z,11.77
2018-06-16T14:59:13.163Z,8.53
2018-06-16T15:01:43.010Z,11.37
2018-06-16T15:04:12.590Z,16.77
2018-06-16T15:06:42.743Z,11.70
2018-06-16T15:09:12.734Z,11.33
2018-06-16T15:11:42.245Z,11.87
2018-06-16T15:14:12.212Z,12.83
2018-06-16T15:16:41.964Z,11.07
2018-06-16T15:19:11.681Z,9.47
2018-06-16T15:21:41.552Z,8.97
2018-06-16T15:24:11.274Z,8.80
2018-06-16T15:26:41.240Z,12.50
2018-06-16T15:29:11.159Z,6.87
2018-06-16T15:31:40.959Z,8.93
2018-06-16T15:34:11.105Z,10.60
2018-06-16T15:36:41.071Z,9.20
2018-06-16T15:39:11.986Z,10.07
2018-06-16T15:41:41.603Z,12.20
2018-06-16T15:44:11.531Z,13.53
2018-06-16T15:46:41.738Z,8.47
2018-06-16T15:49:11.919Z,6.08
2018-06-16T15:51:41.779Z,7.58
2018-06-16T15:54:11.323Z,6.07
2018-06-16T15:56:41.250Z,7.65
2018-06-16T15:59:11.052Z,5.92
2018-06-16T16:01:41.082Z,7.40
2018-06-16T16:04:10.769Z,4.87
2018-06-16T16:06:41.015Z,4.92
2018-06-16T16:09:10.610Z,8.93
2018-06-16T16:11:40.137Z,6.67
2018-06-16T16:14:09.686Z,8.95
2018-06-16T16:16:39.330Z,10.00
2018-06-16T16:19:09.571Z,12.60
2018-06-16T16:21:39.331Z,7.72
2018-06-16T16:24:09.835Z,9.80
2018-06-16T16:26:39.600Z,11.10
2018-06-16T16:29:09.315Z,9.20
2018-06-16T16:31:39.258Z,11.33
2018-06-16T16:34:09.045Z,10.20
2018-06-16T16:36:39.181Z,8.30
2018-06-16T16:39:10.409Z,7.73
2018-06-16T16:41:40.435Z,6.70
2018-06-16T16:44:11.115Z,8.23
2018-06-16T16:46:41.829Z,5.83
2018-06-16T16:49:11.591Z,8.80
2018-06-16T16:51:41.837Z,8.03
2018-06-16T16:54:11.624Z,10.97
2018-06-16T16:56:41.761Z,7.60
2018-06-16T16:59:11.586Z,6.67
2018-06-16T17:01:41.063Z,9.43
2018-06-16T17:04:11.379Z,11.63
2018-06-16T17:06:41.120Z,11.77
2018-06-16T17:09:12.077Z,9.37
2018-06-16T17:11:41.703Z,9.63
2018-06-16T17:14:11.164Z,7.90
2018-06-16T17:16:41.429Z,11.20
2018-06-16T17:19:11.428Z,9.60
2018-06-16T17:21:41.105Z,8.70
2018-06-16T17:24:10.814Z,8.87
2018-06-16T17:26:40.530Z,7.70
2018-06-16T17:29:10.607Z,13.23
2018-06-16T17:31:40.438Z,10.37
2018-06-16T17:34:10.128Z,9.73
2018-06-16T17:36:40.140Z,10.07
2018-06-16T17:39:10.643Z,11.63
2018-06-16T17:41:40.550Z,11.30
2018-06-16T17:44:10.184Z,12.43
2018-06-16T17:46:40.466Z,8.80
2018-06-16T17:49:10.294Z,9.77
2018-06-16T17:51:40.225Z,12.07
2018-06-16T17:54:10.135Z,17.87
2018-06-16T17:56:40.223Z,13.67
2018-06-16T17:59:10.595Z,16.33
2018-06-16T18:01:40.490Z,13.50
2018-06-16T18:04:10.594Z,12.77
2018-06-16T18:06:40.440Z,10.17
2018-06-16T18:09:11.687Z,12.00
2018-06-16T18:11:41.278Z,16.67
2018-06-16T18:14:10.826Z,11.67
2018-06-16T18:16:41.135Z,11.47
2018-06-16T18:19:11.026Z,15.97
2018-06-16T18:21:40.682Z,14.67
2018-06-16T18:24:11.101Z,13.73
2018-06-16T18:26:40.784Z,15.93
2018-06-16T18:29:10.815Z,20.20
2018-06-16T18:31:40.612Z,11.23
2018-06-16T18:34:10.842Z,13.97
2018-06-16T18:36:40.651Z,10.17
2018-06-16T18:39:11.246Z,20.70
2018-06-16T18:41:40.904Z,16.10
2018-06-16T18:44:10.417Z,14.93
2018-06-16T18:46:40.232Z,12.47
2018-06-16T18:49:10.132Z,15.60
2018-06-16T18:51:40.162Z,18.17
2018-06-16T18:54:09.983Z,23.33
2018-06-16T18:56:40.455Z,16.67
2018-06-16T18:59:10.094Z,19.27
2018-06-16T19:01:40.159Z,17.10
2018-06-16T19:04:09.970Z,15.07
2018-06-16T19:06:39.766Z,19.20
2018-06-16T19:09:10.006Z,17.70
2018-06-16T19:11:40.123Z,16.90
2018-06-16T19:14:09.660Z,21.13
2018-06-16T19:16:39.441Z,22.80
2018-06-16T19:19:09.106Z,17.97
2018-06-16T19:21:39.189Z,27.37
2018-06-16T19:24:09.010Z,26.40
2018-06-16T19:26:39.216Z,18.10
2018-06-16T19:29:08.870Z,21.00
2018-06-16T19:31:38.801Z,19.33
2018-06-16T19:34:08.808Z,16.33
2018-06-16T19:36:38.754Z,16.43
2018-06-16T19:39:10.282Z,16.87
2018-06-16T19:41:39.882Z,19.00
2018-06-16T19:44:10.049Z,14.17
2018-06-16T19:46:39.872Z,18.30
2018-06-16T19:49:09.830Z,18.20
2018-06-16T19:51:39.496Z,19.47
2018-06-16T19:54:09.898Z,19.17
2018-06-16T19:56:39.622Z,20.37
2018-06-16T19:59:09.500Z,14.93
2018-06-16T20:01:39.320Z,22.50
2018-06-16T20:04:09.359Z,17.83
2018-06-16T20:06:39.208Z,18.03
2018-06-16T20:09:09.147Z,18.83
2018-06-16T20:11:38.780Z,16.20
2018-06-16T20:14:08.949Z,19.97
2018-06-16T20:16:38.808Z,15.60
2018-06-16T20:19:08.658Z,12.97
2018-06-16T20:21:38.740Z,12.57
2018-06-16T20:24:08.783Z,10.63
2018-06-16T20:26:38.678Z,13.93
2018-06-16T20:29:08.539Z,16.27
2018-06-16T20:31:38.202Z,12.90
2018-06-16T20:34:08.254Z,13.07
2018-06-16T20:36:37.932Z,14.87
2018-06-16T20:39:07.819Z,15.10
2018-06-16T20:41:37.576Z,19.27
2018-06-16T20:44:07.259Z,14.77
2018-06-16T20:46:37.126Z,16.87
2018-06-16T20:49:06.870Z,14.53
2018-06-16T20:51:36.750Z,14.97
2018-06-16T20:54:06.799Z,14.97
2018-06-16T20:56:36.732Z,14.03
2018-06-16T20:59:06.750Z,13.97
2018-06-16T21:01:36.654Z,17.17
2018-06-16T21:04:06.649Z,16.50
2018-06-16T21:06:36.292Z,20.60
2018-06-16T21:09:08.783Z,18.37
2018-06-16T21:11:38.430Z,15.20
2018-06-16T21:14:08.191Z,15.50
2018-06-16T21:16:38.223Z,16.77
2018-06-16T21:19:08.702Z,17.43
2018-06-16T21:21:38.621Z,16.73
2018-06-16T21:24:08.231Z,17.97
2018-06-16T21:26:38.106Z,18.37
2018-06-16T21:29:07.886Z,26.57
2018-06-16T21:31:37.868Z,24.60
2018-06-16T21:34:07.508Z,21.93
2018-06-16T21:36:37.387Z,21.57
2018-06-16T21:39:08.389Z,24.73
2018-06-16T21:41:38.030Z,27.00
2018-06-16T21:44:07.678Z,23.37
2018-06-16T21:46:37.588Z,23.30
2018-06-16T21:49:07.403Z,17.03
2018-06-16T21:51:37.482Z,22.70
2018-06-16T21:54:07.147Z,20.13
2018-06-16T21:56:36.879Z,16.57
2018-06-16T21:59:06.523Z,22.73
2018-06-16T22:01:37.436Z,17.53
2018-06-16T22:04:07.691Z,22.47
2018-06-16T22:06:37.734Z,18.83
2018-06-16T22:09:09.657Z,17.97
2018-06-16T22:11:39.406Z,17.20
2018-06-16T22:14:09.094Z,18.80
2018-06-16T22:16:39.096Z,17.07
2018-06-16T22:19:09.042Z,16.17
2018-06-16T22:21:39.140Z,13.97
2018-06-16T22:24:09.197Z,17.30
2018-06-16T22:26:39.166Z,16.93
2018-06-16T22:29:09.158Z,14.60
2018-06-16T22:31:39.173Z,17.23
2018-06-16T22:34:09.289Z,16.17
2018-06-16T22:36:39.405Z,22.73
2018-06-16T22:39:11.465Z,17.87
2018-06-16T22:41:41.199Z,18.53
2018-06-16T22:44:11.243Z,18.30
2018-06-16T22:46:41.191Z,18.07
2018-06-16T22:49:11.280Z,20.93
2018-06-16T22:51:41.367Z,16.13
2018-06-16T22:54:11.415Z,18.10
2018-06-16T22:56:40.922Z,15.17
2018-06-16T22:59:10.708Z,14.63
2018-06-16T23:01:40.182Z,15.13
2018-06-16T23:04:09.923Z,16.40
2018-06-16T23:06:39.636Z,12.87
2018-06-16T23:09:11.090Z,15.73
2018-06-16T23:11:40.838Z,12.43
2018-06-16T23:14:10.841Z,16.27
2018-06-16T23:16:40.770Z,13.40
2018-06-16T23:19:10.873Z,13.37
2018-06-16T23:21:40.763Z,17.03
2018-06-16T23:24:10.782Z,11.60
2018-06-16T23:26:40.845Z,15.53
2018-06-16T23:29:10.950Z,11.90
2018-06-16T23:31:41.035Z,11.97
2018-06-16T23:34:10.952Z,16.37
2018-06-16T23:36:40.930Z,12.13
2018-06-16T23:39:12.389Z,12.33
2018-06-16T23:41:42.632Z,13.00
2018-06-16T23:44:12.157Z,17.07
2018-06-16T23:46:42.270Z,16.40
2018-06-16T23:49:11.978Z,19.13
2018-06-16T23:51:42.001Z,16.60
2018-06-16T23:54:11.846Z,12.83
2018-06-16T23:56:41.511Z,13.07
2018-06-16T23:59:11.131Z,12.10
